Time,TemperatureF,DewpointF,PressureIn,WindDirection,WindDirectionDegrees,WindSpeedMPH,WindSpeedGustMPH,Humidity,HourlyPrecipIn,Conditions,Clouds,dailyrainin,SoftwareType,DateUTC
2013-02-21 00:00:00,72.4,59.1,30.05,East,79,7.0,18.0,63,0.00,,---,0.00,VWS V14.01,2013-02-21 10:00:00,
2013-02-21 00:04:00,71.5,58.7,30.05,ESE,115,3.0,7.0,64,0.00,,---,0.00,VWS V14.01,2013-02-21 10:04:00,
2013-02-21 00:09:00,71.5,58.7,30.05,ENE,69,10.0,15.0,64,0.00,,---,0.00,VWS V14.01,2013-02-21 10:09:00,
2013-02-21 00:14:00,71.7,58.9,30.05,ENE,69,8.0,15.0,64,0.00,,---,0.00,VWS V14.01,2013-02-21 10:14:00,
2013-02-21 00:19:00,72.1,58.8,30.05,NE,40,8.0,18.0,63,0.00,,---,0.00,VWS V14.01,2013-02-21 10:19:00,
2013-02-21 00:24:00,72.3,58.6,30.05,ENE,70,3.0,18.0,62,0.00,,---,0.00,VWS V14.01,2013-02-21 10:24:00,
2013-02-21 00:29:00,72.5,58.8,30.05,ESE,107,9.0,18.0,62,0.00,,---,0.00,VWS V14.01,2013-02-21 10:29:00,
2013-02-21 00:32:00,72.4,59.5,30.04,East,90,15.0,15.0,64,0.00,,---,0.00,VWS V14.01,2013-02-21 10:32:00,
2013-02-21 00:33:00,72.4,59.5,30.04,ENE,64,5.0,15.0,64,0.00,,---,0.00,VWS V14.01,2013-02-21 10:33:00,
2013-02-21 00:34:00,72.7,58.9,30.05,East,96,15.0,16.0,62,0.00,,---,0.00,VWS V14.01,2013-02-21 10:34:00,
2013-02-21 00:36:00,72.5,59.6,30.04,ENE,71,12.0,22.0,64,0.00,,---,0.00,VWS V14.01,2013-02-21 10:36:00,
2013-02-21 00:38:00,72.5,59.6,30.04,NE,48,11.0,22.0,64,0.00,,---,0.00,VWS V14.01,2013-02-21 10:38:00,
2013-02-21 00:39:00,72.9,58.7,30.05,ESE,119,17.0,17.0,61,0.00,,---,0.00,VWS V14.01,2013-02-21 10:39:00,
2013-02-21 00:41:00,72.6,59.7,30.04,ENE,69,11.0,22.0,64,0.00,,---,0.00,VWS V14.01,2013-02-21 10:41:00,
2013-02-21 00:44:00,72.9,58.7,30.05,East,91,14.0,18.0,61,0.00,,---,0.00,VWS V14.01,2013-02-21 10:44:00,
2013-02-21 00:47:00,72.7,59.8,30.04,East,88,2.0,22.0,64,0.00,,---,0.00,VWS V14.01,2013-02-21 10:47:00,
2013-02-21 00:48:00,72.6,59.7,30.03,ESE,105,5.0,22.0,64,0.00,,---,0.00,VWS V14.01,2013-02-21 10:48:00,
2013-02-21 00:49:00,72.8,59.0,30.05,ESE,113,12.0,18.0,62,0.00,,---,0.00,VWS V14.01,2013-02-21 10:49:00,
2013-02-21 00:51:00,72.6,59.7,30.03,East,81,11.0,22.0,64,0.00,,---,0.00,VWS V14.01,2013-02-21 10:51:00,
2013-02-21 00:52:00,72.6,59.7,30.03,ENE,71,4.0,22.0,64,0.00,,---,0.00,VWS V14.01,2013-02-21 10:52:00,
2013-02-21 00:54:00,72.7,58.9,30.05,ESE,103,14.0,18.0,62,0.00,,---,0.00,VWS V14.01,2013-02-21 10:54:00,
2013-02-21 00:59:00,72.6,58.8,30.05,East,92,10.0,18.0,62,0.00,,---,0.00,VWS V14.01,2013-02-21 10:59:00,
2013-02-21 01:00:00,72.6,59.7,30.03,East,88,7.0,22.0,64,0.00,,---,0.00,VWS V14.01,2013-02-21 11:00:00,
2013-02-21 01:04:00,72.3,59.0,30.05,East,101,3.0,7.0,63,0.00,,---,0.00,VWS V14.01,2013-02-21 11:04:00,
2013-02-21 01:08:00,72.4,59.5,30.03,ENE,75,10.0,16.0,64,0.00,,---,0.00,VWS V14.01,2013-02-21 11:08:00,
2013-02-21 01:09:00,72.1,58.8,30.05,SE,126,11.0,18.0,63,0.00,,---,0.00,VWS V14.01,2013-02-21 11:09:00,
2013-02-21 01:14:00,71.8,59.4,30.05,ENE,63,8.0,18.0,65,0.00,,---,0.00,VWS V14.01,2013-02-21 11:14:00,
2013-02-21 01:19:00,72.3,59.9,30.03,ENE,76,2.0,16.0,65,0.00,,---,0.00,VWS V14.01,2013-02-21 11:19:00,
2013-02-21 01:20:00,72.2,59.8,30.02,ESE,121,5.0,7.0,65,0.00,,---,0.00,VWS V14.01,2013-02-21 11:20:00,
2013-02-21 01:24:00,72.0,59.2,30.04,ESE,102,5.0,10.0,64,0.00,,---,0.00,VWS V14.01,2013-02-21 11:24:00,
2013-02-21 01:25:00,72.1,59.7,30.02,ESE,109,10.0,15.0,65,0.00,,---,0.00,VWS V14.01,2013-02-21 11:25:00,
2013-02-21 01:27:00,72.2,59.8,30.02,NE,53,5.0,21.0,65,0.00,,---,0.00,VWS V14.01,2013-02-21 11:27:00,
2013-02-21 01:29:00,72.2,59.4,30.04,East,84,11.0,21.0,64,0.00,,---,0.00,VWS V14.01,2013-02-21 11:29:00,
2013-02-21 01:30:00,72.4,60.0,30.03,NNE,18,6.0,21.0,65,0.00,,---,0.00,VWS V14.01,2013-02-21 11:30:00,
2013-02-21 01:34:00,72.4,59.5,30.04,ENE,67,9.0,13.0,64,0.00,,---,0.00,VWS V14.01,2013-02-21 11:34:00,
2013-02-21 01:36:00,72.3,59.9,30.03,NNE,29,3.0,11.0,65,0.00,,---,0.00,VWS V14.01,2013-02-21 11:36:00,
2013-02-21 01:38:00,72.3,59.9,30.02,ENE,57,10.0,11.0,65,0.00,,---,0.00,VWS V14.01,2013-02-21 11:38:00,
2013-02-21 01:39:00,72.4,59.5,30.04,East,84,8.0,22.0,64,0.00,,---,0.00,VWS V14.01,2013-02-21 11:39:00,
2013-02-21 01:44:00,72.6,59.7,30.04,East,80,14.0,22.0,64,0.00,,---,0.00,VWS V14.01,2013-02-21 11:44:00,
2013-02-21 01:49:00,72.7,59.8,30.04,East,82,7.0,22.0,64,0.00,,---,0.00,VWS V14.01,2013-02-21 11:49:00,
2013-02-21 01:54:00,72.6,59.7,30.03,East,81,19.0,22.0,64,0.00,,---,0.00,VWS V14.01,2013-02-21 11:54:00,
2013-02-21 02:00:00,72.5,59.6,30.03,ENE,78,7.0,22.0,64,0.00,,---,0.00,VWS V14.01,2013-02-21 12:00:00,
2013-02-21 02:05:00,72.6,59.7,30.03,ENE,70,5.0,9.0,64,0.00,,---,0.00,VWS V14.01,2013-02-21 12:05:00,
2013-02-21 02:10:00,72.5,59.6,30.03,NE,48,10.0,16.0,64,0.00,,---,0.00,VWS V14.01,2013-02-21 12:10:00,
2013-02-21 02:15:00,72.4,59.5,30.03,ENE,65,10.0,16.0,64,0.00,,---,0.00,VWS V14.01,2013-02-21 12:15:00,
2013-02-21 02:20:00,72.4,60.0,30.02,NE,56,4.0,16.0,65,0.00,,---,0.00,VWS V14.01,2013-02-21 12:20:00,
2013-02-21 02:26:00,72.2,59.8,30.02,NE,53,7.0,10.0,65,0.00,,---,0.00,VWS V14.01,2013-02-21 12:26:00,
2013-02-21 02:30:00,71.2,59.7,30.02,East,91,1.0,10.0,67,0.00,,---,0.00,VWS V14.01,2013-02-21 12:30:00,
2013-02-21 02:31:00,72.2,59.8,30.02,ENE,67,9.0,21.0,65,0.00,,---,0.00,VWS V14.01,2013-02-21 12:31:00,
2013-02-21 02:36:00,72.4,60.0,30.03,NE,49,4.0,9.0,65,0.00,,---,0.00,VWS V14.01,2013-02-21 12:36:00,
2013-02-21 02:41:00,72.3,59.9,30.03,East,94,8.0,11.0,65,0.00,,---,0.00,VWS V14.01,2013-02-21 12:41:00,
2013-02-21 02:46:00,72.2,59.8,30.02,NNE,18,4.0,13.0,65,0.00,,---,0.00,VWS V14.01,2013-02-21 12:46:00,
2013-02-21 02:51:00,72.2,59.8,30.02,NNE,21,4.0,15.0,65,0.00,,---,0.00,VWS V14.01,2013-02-21 12:51:00,
2013-02-21 02:56:00,72.2,60.2,30.02,East,95,6.0,15.0,66,0.00,,---,0.00,VWS V14.01,2013-02-21 12:56:00,
2013-02-21 03:00:00,71.1,60.0,30.02,ENE,78,2.0,9.0,68,0.00,,---,0.00,VWS V14.01,2013-02-21 13:00:00,
2013-02-21 03:01:00,72.0,60.0,30.03,NE,51,7.0,15.0,66,0.00,,---,0.00,VWS V14.01,2013-02-21 13:01:00,
2013-02-21 03:06:00,71.8,59.8,30.02,East,94,3.0,10.0,66,0.00,,---,0.00,VWS V14.01,2013-02-21 13:06:00,
2013-02-21 03:11:00,72.0,59.6,30.02,East,86,5.0,10.0,65,0.00,,---,0.00,VWS V14.01,2013-02-21 13:11:00,
2013-02-21 03:16:00,71.8,59.4,30.02,ENE,75,3.0,10.0,65,0.00,,---,0.00,VWS V14.01,2013-02-21 13:16:00,
2013-02-21 03:21:00,71.5,59.6,30.02,ENE,74,0.0,10.0,66,0.00,,---,0.00,VWS V14.01,2013-02-21 13:21:00,
2013-02-21 03:26:00,71.2,59.7,30.02,ENE,76,2.0,10.0,67,0.00,,---,0.00,VWS V14.01,2013-02-21 13:26:00,
2013-02-21 03:30:00,71.2,60.1,30.01,ENE,74,3.0,13.0,68,0.00,,---,0.00,VWS V14.01,2013-02-21 13:30:00,
2013-02-21 03:31:00,71.3,59.8,30.02,ENE,74,2.0,10.0,67,0.00,,---,0.00,VWS V14.01,2013-02-21 13:31:00,
2013-02-21 03:36:00,71.2,59.7,30.02,East,86,2.0,5.0,67,0.00,,---,0.00,VWS V14.01,2013-02-21 13:36:00,
2013-02-21 03:41:00,71.1,59.6,30.02,East,86,1.0,5.0,67,0.00,,---,0.00,VWS V14.01,2013-02-21 13:41:00,
2013-02-21 03:46:00,70.8,59.7,30.02,East,86,2.0,5.0,68,0.00,,---,0.00,VWS V14.01,2013-02-21 13:46:00,
2013-02-21 03:51:00,70.8,59.7,30.02,ENE,67,5.0,8.0,68,0.00,,---,0.00,VWS V14.01,2013-02-21 13:51:00,
2013-02-21 03:56:00,70.9,59.8,30.02,ENE,78,4.0,8.0,68,0.00,,---,0.00,VWS V14.01,2013-02-21 13:56:00,
2013-02-21 04:00:00,70.9,60.6,30.02,ENE,76,2.0,8.0,70,0.00,,---,0.00,VWS V14.01,2013-02-21 14:00:00,
2013-02-21 04:02:00,71.0,59.9,30.02,East,93,2.0,8.0,68,0.00,,---,0.00,VWS V14.01,2013-02-21 14:02:00,
2013-02-21 04:07:00,71.2,60.1,30.01,SE,132,7.0,8.0,68,0.00,,---,0.00,VWS V14.01,2013-02-21 14:07:00,
2013-02-21 04:12:00,71.3,60.2,30.01,ENE,74,2.0,8.0,68,0.00,,---,0.00,VWS V14.01,2013-02-21 14:12:00,
2013-02-21 04:17:00,71.2,60.1,30.01,East,80,6.0,10.0,68,0.00,,---,0.00,VWS V14.01,2013-02-21 14:17:00,
2013-02-21 04:22:00,71.4,60.3,30.01,East,92,7.0,13.0,68,0.00,,---,0.00,VWS V14.01,2013-02-21 14:22:00,
2013-02-21 04:27:00,71.5,60.0,30.01,East,97,7.0,13.0,67,0.00,,---,0.00,VWS V14.01,2013-02-21 14:27:00,
2013-02-21 04:30:00,70.1,60.3,30.02,East,80,2.0,6.0,71,0.00,,---,0.00,VWS V14.01,2013-02-21 14:30:00,
2013-02-21 04:32:00,71.4,59.9,30.01,NE,49,1.0,13.0,67,0.00,,---,0.00,VWS V14.01,2013-02-21 14:32:00,
2013-02-21 04:37:00,71.0,59.9,30.02,ENE,66,2.0,3.0,68,0.00,,---,0.00,VWS V14.01,2013-02-21 14:37:00,
2013-02-21 04:42:00,70.6,60.0,30.02,ENE,77,2.0,4.0,69,0.00,,---,0.00,VWS V14.01,2013-02-21 14:42:00,
2013-02-21 04:47:00,70.7,60.5,30.02,ENE,57,1.0,5.0,70,0.00,,---,0.00,VWS V14.01,2013-02-21 14:47:00,
2013-02-21 04:52:00,70.8,60.5,30.02,ENE,76,0.0,5.0,70,0.00,,---,0.00,VWS V14.01,2013-02-21 14:52:00,
2013-02-21 04:57:00,70.7,60.5,30.01,ENE,60,4.0,8.0,70,0.00,,---,0.00,VWS V14.01,2013-02-21 14:57:00,
2013-02-21 05:00:00,69.7,59.5,30.03,ENE,76,3.0,7.0,70,0.00,,---,0.00,VWS V14.01,2013-02-21 15:00:00,
2013-02-21 05:02:00,70.9,60.6,30.01,NNE,30,1.0,8.0,70,0.00,,---,0.00,VWS V14.01,2013-02-21 15:02:00,
2013-02-21 05:07:00,70.7,60.0,30.02,ENE,59,0.0,4.0,69,0.00,,---,0.00,VWS V14.01,2013-02-21 15:07:00,
2013-02-21 05:12:00,70.2,60.0,30.02,ENE,71,4.0,5.0,70,0.00,,---,0.00,VWS V14.01,2013-02-21 15:12:00,
2013-02-21 05:17:00,69.9,60.1,30.02,NE,46,1.0,5.0,71,0.00,,---,0.00,VWS V14.01,2013-02-21 15:17:00,
2013-02-21 05:22:00,69.9,60.1,30.02,NE,46,2.0,5.0,71,0.00,,---,0.00,VWS V14.01,2013-02-21 15:22:00,
2013-02-21 05:27:00,69.9,60.1,30.02,ENE,76,1.0,5.0,71,0.00,,---,0.00,VWS V14.01,2013-02-21 15:27:00,
2013-02-21 05:30:00,68.8,60.2,30.04,ENE,71,1.0,5.0,74,0.00,,---,0.00,VWS V14.01,2013-02-21 15:30:00,
2013-02-21 05:32:00,70.1,60.3,30.02,East,80,2.0,6.0,71,0.00,,---,0.00,VWS V14.01,2013-02-21 15:32:00,
2013-02-21 05:37:00,70.1,60.3,30.03,East,80,1.0,2.0,71,0.00,,---,0.00,VWS V14.01,2013-02-21 15:37:00,
2013-02-21 05:42:00,70.3,60.5,30.03,SE,131,3.0,7.0,71,0.00,,---,0.00,VWS V14.01,2013-02-21 15:42:00,
2013-02-21 05:47:00,70.6,60.0,30.03,SE,125,0.0,7.0,69,0.00,,---,0.00,VWS V14.01,2013-02-21 15:47:00,
2013-02-21 05:52:00,70.4,59.8,30.03,East,93,2.0,7.0,69,0.00,,---,0.00,VWS V14.01,2013-02-21 15:52:00,
2013-02-21 05:58:00,70.4,59.8,30.03,East,94,1.0,7.0,69,0.00,,---,0.00,VWS V14.01,2013-02-21 15:58:00,
2013-02-21 06:00:00,70.0,61.0,30.05,NE,50,4.0,11.0,73,0.00,,---,0.00,VWS V14.01,2013-02-21 16:00:00,
2013-02-21 06:03:00,69.8,59.6,30.03,ENE,77,4.0,7.0,70,0.00,,---,0.00,VWS V14.01,2013-02-21 16:03:00,
2013-02-21 06:08:00,69.5,60.1,30.04,ENE,76,2.0,4.0,72,0.00,,---,0.00,VWS V14.01,2013-02-21 16:08:00,
2013-02-21 06:09:00,71.2,60.5,30.05,East,95,5.0,16.0,69,0.00,,---,0.00,VWS V14.01,2013-02-21 16:09:00,
2013-02-21 06:13:00,69.5,60.1,30.04,ENE,74,1.0,4.0,72,0.00,,---,0.00,VWS V14.01,2013-02-21 16:13:00,
2013-02-21 06:18:00,69.5,60.5,30.04,ENE,74,2.0,4.0,73,0.00,,---,0.00,VWS V14.01,2013-02-21 16:18:00,
2013-02-21 06:23:00,69.3,59.9,30.04,East,95,2.0,5.0,72,0.00,,---,0.00,VWS V14.01,2013-02-21 16:23:00,
2013-02-21 06:28:00,69.2,60.2,30.04,East,88,0.0,5.0,73,0.00,,---,0.00,VWS V14.01,2013-02-21 16:28:00,
2013-02-21 06:30:00,73.5,61.0,30.05,ESE,112,9.0,24.0,65,0.00,,---,0.00,VWS V14.01,2013-02-21 16:30:00,
2013-02-21 06:33:00,68.8,60.2,30.04,East,80,3.0,5.0,74,0.00,,---,0.00,VWS V14.01,2013-02-21 16:33:00,
2013-02-21 06:38:00,68.8,60.2,30.04,ENE,73,0.0,2.0,74,0.00,,---,0.00,VWS V14.01,2013-02-21 16:38:00,
2013-02-21 06:43:00,68.7,60.1,30.04,ENE,74,1.0,4.0,74,0.00,,---,0.00,VWS V14.01,2013-02-21 16:43:00,
2013-02-21 06:48:00,69.1,60.8,30.04,East,95,1.0,5.0,75,0.00,,---,0.00,VWS V14.01,2013-02-21 16:48:00,
2013-02-21 06:53:00,69.2,60.6,30.05,ENE,63,3.0,5.0,74,0.00,,---,0.00,VWS V14.01,2013-02-21 16:53:00,
2013-02-21 06:58:00,69.5,60.9,30.05,East,100,5.0,7.0,74,0.00,,---,0.00,VWS V14.01,2013-02-21 16:58:00,
2013-02-21 07:00:00,75.3,62.7,30.06,East,90,6.0,18.0,65,0.00,,---,0.00,VWS V14.01,2013-02-21 17:00:00,
2013-02-21 07:03:00,69.9,60.9,30.05,East,101,5.0,11.0,73,0.00,,---,0.00,VWS V14.01,2013-02-21 17:03:00,
2013-02-21 07:08:00,70.5,60.7,30.05,East,81,8.0,8.0,71,0.00,,---,0.00,VWS V14.01,2013-02-21 17:08:00,
2013-02-21 07:14:00,71.2,60.5,30.05,ESE,105,4.0,16.0,69,0.00,,---,0.00,VWS V14.01,2013-02-21 17:14:00,
2013-02-21 07:30:00,76.5,64.3,30.07,NNE,22,2.0,7.0,66,0.00,,---,0.00,VWS V14.01,2013-02-21 17:30:00,
2013-02-21 08:00:00,76.1,64.8,30.06,NNW,338,3.0,8.0,68,0.00,,---,0.00,VWS V14.01,2013-02-21 18:00:00,
2013-02-21 08:30:00,77.6,65.8,30.06,NNW,338,4.0,9.0,67,0.00,,---,0.00,VWS V14.01,2013-02-21 18:30:00,
2013-02-21 09:00:00,78.2,65.0,30.06,NNW,338,4.0,8.0,64,0.00,,---,0.00,VWS V14.01,2013-02-21 19:00:00,
2013-02-21 09:30:00,76.8,65.9,30.06,WNW,292,4.0,9.0,69,0.00,,---,0.00,VWS V14.01,2013-02-21 19:30:00,
2013-02-21 10:00:00,77.8,65.1,30.04,West,270,5.0,11.0,65,0.00,,---,0.00,VWS V14.01,2013-02-21 20:00:00,
2013-02-21 10:30:00,78.2,67.2,30.03,West,270,5.0,10.0,69,0.00,,---,0.00,VWS V14.01,2013-02-21 20:30:00,
2013-02-21 11:00:00,78.4,67.0,30.03,WSW,248,4.0,8.0,68,0.00,,---,0.00,VWS V14.01,2013-02-21 21:00:00,
2013-02-21 11:30:00,77.7,67.1,30.02,WSW,248,4.0,7.0,70,0.00,,---,0.00,VWS V14.01,2013-02-21 21:30:00,
2013-02-21 12:00:00,78.2,66.8,30.01,WSW,248,4.0,8.0,68,0.00,,---,0.00,VWS V14.01,2013-02-21 22:00:00,
2013-02-21 12:30:00,78.5,66.6,30.00,WSW,248,3.0,7.0,67,0.00,,---,0.00,VWS V14.01,2013-02-21 22:30:00,
2013-02-21 13:00:00,78.6,66.7,29.99,WSW,248,3.0,8.0,67,0.00,,---,0.00,VWS V14.01,2013-02-21 23:00:00,
2013-02-21 13:30:00,77.6,66.6,29.99,WSW,248,3.0,6.0,69,0.00,,---,0.00,VWS V14.01,2013-02-21 23:30:00,
2013-02-21 14:00:00,78.2,66.4,29.98,WSW,248,2.0,6.0,67,0.00,,---,0.00,VWS V14.01,2013-02-22 00:00:00,
2013-02-21 14:30:00,78.4,64.3,29.98,SSW,202,1.0,5.0,62,0.00,,---,0.00,VWS V14.01,2013-02-22 00:30:00,
2013-02-21 15:00:00,77.9,65.2,29.98,SW,225,2.0,7.0,65,0.00,,---,0.00,VWS V14.01,2013-02-22 01:00:00,
2013-02-21 15:30:00,77.6,64.9,29.99,SW,225,2.0,6.0,65,0.00,,---,0.00,VWS V14.01,2013-02-22 01:30:00,
2013-02-21 16:00:00,77.2,65.8,30.00,West,270,1.0,4.0,68,0.00,,---,0.00,VWS V14.01,2013-02-22 02:00:00,
2013-02-21 16:30:00,77.1,65.7,30.00,SSE,158,3.0,9.0,68,0.00,,---,0.00,VWS V14.01,2013-02-22 02:30:00,
2013-02-21 17:00:00,77.2,65.4,30.02,WNW,292,3.0,9.0,67,0.00,,---,0.00,VWS V14.01,2013-02-22 03:00:00,
2013-02-21 17:30:00,77.1,62.6,30.02,NE,45,7.0,25.0,61,0.00,,---,0.00,VWS V14.01,2013-02-22 03:30:00,
2013-02-21 18:00:00,76.5,65.6,30.03,NE,45,6.0,20.0,69,0.00,,---,0.00,VWS V14.01,2013-02-22 04:00:00,
2013-02-21 18:30:00,76.6,63.1,30.03,NW,315,5.0,23.0,63,0.00,,---,0.00,VWS V14.01,2013-02-22 04:30:00,
2013-02-21 19:00:00,76.4,62.9,30.03,NE,45,6.0,17.0,63,0.00,,---,0.00,VWS V14.01,2013-02-22 05:00:00,
2013-02-21 19:30:00,76.0,60.7,30.02,NE,45,8.0,24.0,59,0.00,,---,0.00,VWS V14.01,2013-02-22 05:30:00,
2013-02-21 20:00:00,76.6,59.8,30.05,ESE,112,4.0,17.0,56,0.00,,---,0.00,VWS V14.01,2013-02-22 06:00:00,
2013-02-21 20:30:00,77.1,60.7,30.04,East,90,2.0,9.0,57,0.00,,---,0.00,VWS V14.01,2013-02-22 06:30:00,
2013-02-21 21:00:00,77.5,60.1,30.03,ESE,112,6.0,18.0,55,0.00,,---,0.00,VWS V14.01,2013-02-22 07:00:00,
2013-02-21 21:30:00,77.8,59.8,30.03,NNW,338,7.0,26.0,54,0.00,,---,0.00,VWS V14.01,2013-02-22 07:30:00,
2013-02-21 22:00:00,78.1,60.1,30.03,NNW,338,12.0,29.0,54,0.00,,---,0.00,VWS V14.01,2013-02-22 08:00:00,
2013-02-21 22:30:00,77.8,60.9,30.06,NNW,338,9.0,32.0,56,0.00,,---,0.00,VWS V14.01,2013-02-22 08:30:00,
2013-02-21 23:00:00,76.8,59.4,30.03,East,90,8.0,23.0,55,0.00,,---,0.00,VWS V14.01,2013-02-22 09:00:00,
2013-02-21 23:30:00,76.2,64.9,30.05,NNW,338,9.0,21.0,68,0.00,,---,0.00,VWS V14.01,2013-02-22 09:30:00,